FW0549 Weather Reports


Display with metric or nautical units.
time (UTC)temp
F
wind
direction
speed
MPH
gust
MPH
rain 1hr
in
rain 24hr
in
rain mn
in
humidity
%
barometer
mb
20221003083151 45 180 8.0 9.0 0.00 0.00 0.00 33 1013.0
20221003082251 44 200 6.0 9.0 0.00 0.00 0.00 35 1013.0
20221003081605 45 225 8.0 9.0 0.00 0.00 0.00 33 1013.0
20221003080451 45 225 5.0 7.0 0.00 0.00 0.00 34 1013.1
20221003075551 44 225 3.0 7.0 0.00 0.00 0.00 35 1013.3
20221003074652 44 225 5.0 7.0 0.00 0.00 0.00 34 1013.3
20221003073752 45 225 5.0 7.0 0.00 0.00 0.00 31 1013.4
20221003072851 45 225 3.0 6.0 0.00 0.00 0.00 32 1013.3
20221003072204 45 225 2.0 6.0 0.00 0.00 0.00 31 1013.4
20221003071051 46 225 5.0 12.0 0.00 0.00 0.00 29 1013.6
20221003070151 47 225 3.0 8.0 0.00 0.00 0.00 31 1013.6
20221003065252 46 225 4.0 9.0 0.00 0.00 0.00 29 1013.6
20221003064351 46 196 5.0 7.0 0.00 0.00 0.00 30 1013.7
20221003063451 46 180 4.0 7.0 0.00 0.00 0.00 30 1013.5
20221003062803 47 180 4.0 7.0 0.00 0.00 0.00 30 1013.7
20221003061651 47 180 3.0 7.0 0.00 0.00 0.00 29 1013.7
20221003060751 47 180 3.0 6.0 0.00 0.00 0.00 30 1013.9
20221003055852 47 180 5.0 7.0 0.00 0.00 0.04 29 1013.8
20221003054951 47 180 6.0 7.0 0.00 0.00 0.04 30 1013.9
20221003054052 46 180 4.0 7.0 0.00 0.00 0.04 32 1013.9
20221003053402 46 180 8.0 7.0 0.00 0.00 0.04 31 1014.0
20221003052251 46 180 2.0 8.0 0.00 0.00 0.04 34 1013.9
20221003051352 46 180 3.0 6.0 0.00 0.00 0.04 34 1014.2
20221003050451 45 180 5.0 6.0 0.00 0.00 0.04 35 1014.1
20221003045552 44 180 0.0 5.0 0.00 0.00 0.04 39 1014.1
20221003044652 44 180 2.0 5.0 0.00 0.00 0.04 41 1014.1
20221003043751 44 180 0.0 5.0 0.00 0.00 0.04 42 1014.3
20221003043104 44 180 2.0 6.0 0.00 0.00 0.04 41 1014.4
20221003041951 44 180 3.0 7.0 0.00 0.00 0.04 40 1014.3
20221003041052 43 180 0.0 3.0 0.00 0.00 0.04 43 1014.4
20221003040151 44 180 0.0 5.0 0.00 0.00 0.04 42 1014.3
20221003035252 44 180 0.0 4.0 0.00 0.00 0.04 41 1014.3
20221003034351 44 180 0.0 1.0 0.00 0.00 0.04 44 1014.3
20221003033452 44 0 0.0 0.0 0.00 0.00 0.04 44 1014.4
20221003032551 44 180 0.0 4.0 0.00 0.00 0.04 44 1014.3
20221003031902 44 180 0.0 3.0 0.00 0.00 0.04 42 1014.4
20221003030751 44 180 0.0 5.0 0.00 0.00 0.04 43 1014.4
20221003025851 44 180 1.0 7.0 0.00 0.00 0.04 44 1014.5
20221003024952 44 218 3.0 6.0 0.00 0.00 0.04 43 1014.6
20221003024051 44 225 1.0 5.0 0.00 0.00 0.04 42 1014.4
20221003023151 44 225 3.0 5.0 0.00 0.00 0.04 43 1014.0
20221003022252 44 0 0.0 0.0 0.00 0.00 0.04 42 1014.1
20221003021352 45 225 0.0 1.0 0.00 0.00 0.04 40 1014.0
20221003020451 47 225 1.0 8.0 0.00 0.00 0.04 35 1014.0
20221003015551 47 225 4.0 7.0 0.00 0.00 0.04 35 1013.8
20221003014651 47 225 2.0 5.0 0.00 0.00 0.04 33 1013.9
20221003014003 48 220 4.0 6.0 0.00 0.00 0.04 33 1014.1
20221003012852 49 180 4.0 11.0 0.00 0.00 0.04 32 1014.1
20221003011952 49 180 6.0 11.0 0.00 0.00 0.04 31 1014.0
20221003011051 48 180 4.0 7.0 0.00 0.00 0.04 32 1014.0
20221003010152 49 180 4.0 6.0 0.00 0.00 0.04 34 1013.9
20221003005251 49 180 0.0 5.0 0.00 0.00 0.04 41 1013.8
20221003004352 49 180 0.0 5.0 0.00 0.00 0.04 41 1013.8
20221003003451 49 0 0.0 0.0 0.00 0.00 0.04 41 1013.9
20221003002552 50 0 0.0 0.0 0.00 0.00 0.04 36 1013.9
20221003001904 51 0 0.0 0.0 0.00 0.00 0.04 38 1014.0
20221003000751 51 180 1.0 2.0 0.00 0.00 0.04 34 1013.6
20221002235852 53 0 0.0 0.0 0.00 0.00 0.04 31 1013.8
20221002234951 53 180 0.0 5.0 0.00 0.10 0.04 30 1013.6
20221002234303 53 180 4.0 5.0 0.00 0.10 0.04 30 1013.7
20221002233152 53 180 0.0 5.0 0.00 0.10 0.04 30 1013.8
20221002232251 53 180 2.0 7.0 0.00 0.10 0.04 29 1013.7
20221002231605 54 180 2.0 7.0 0.00 0.10 0.04 28 1013.6
20221002230452 55 180 8.0 9.0 0.00 0.10 0.04 31 1013.5
20221002225805 53 180 4.0 9.0 0.00 0.10 0.04 32 1013.4
20221002224651 53 180 7.0 10.0 0.00 0.10 0.04 31 1013.7
20221002223752 54 180 4.0 9.0 0.00 0.10 0.04 30 1013.6
20221002222851 54 192 6.0 8.0 0.00 0.10 0.04 29 1013.5
20221002221952 54 225 4.0 7.0 0.00 0.10 0.04 28 1013.7
20221002221052 54 225 3.0 8.0 0.00 0.10 0.04 30 1013.7
20221002220404 54 225 3.0 8.0 0.00 0.10 0.04 29 1013.9
20221002215251 58 225 1.0 5.0 0.00 0.20 0.04 21 1013.9
20221002214351 57 225 2.0 5.0 0.00 0.20 0.04 21 1013.9
20221002213451 57 225 1.0 11.0 0.00 0.20 0.04 22 1013.8
20221002212551 57 225 11.0 11.0 0.00 0.30 0.04 23 1013.9
20221002211652 57 225 8.0 10.0 0.00 0.30 0.04 23 1013.9
20221002211003 58 225 5.0 8.0 0.00 0.30 0.04 23 1013.9
20221002205852 58 225 2.0 7.0 0.00 0.30 0.04 22 1014.0
20221002204951 57 225 4.0 9.0 0.00 0.30 0.04 22 1014.1
20221002204051 57 225 8.0 7.0 0.00 0.30 0.04 21 1013.9
20221002203151 56 225 5.0 9.0 0.00 0.30 0.04 22 1013.8
20221002202252 58 225 2.0 7.0 0.00 0.30 0.04 22 1013.9
20221002201602 58 225 5.0 7.0 0.00 0.30 0.04 21 1013.6
20221002200452 60 225 2.0 5.0 0.00 0.30 0.04 20 1013.8
20221002195551 57 185 5.0 6.0 0.00 0.30 0.04 22 1013.9
20221002194652 59 180 1.0 5.0 0.00 0.30 0.04 21 1013.9
20221002193751 59 180 2.0 5.0 0.00 0.30 0.04 21 1013.7
20221002192852 57 180 4.0 7.0 0.00 0.30 0.04 23 1013.8
20221002192201 57 180 5.0 9.0 0.00 0.30 0.04 24 1013.8
20221002191051 55 180 10.0 9.0 0.00 0.30 0.04 23 1013.7
20221002190151 55 180 9.0 9.0 0.00 0.30 0.04 23 1013.8
20221002185251 59 180 7.0 9.0 0.00 0.30 0.04 24 1013.7
20221002184351 58 180 4.0 5.0 0.00 0.30 0.04 22 1013.8
20221002183452 54 180 2.0 7.0 0.00 0.30 0.04 24 1013.7
20221002182805 54 180 3.0 8.0 0.00 0.30 0.04 24 1013.8
20221002181651 53 180 5.0 7.0 0.00 0.30 0.04 26 1013.8
20221002181005 53 180 6.0 5.0 0.00 0.30 0.04 26 1014.1
20221002175852 53 180 4.0 5.0 0.00 0.30 0.04 29 1013.9
20221002174951 53 180 3.0 7.0 0.00 0.30 0.04 28 1014.1
20221002174052 53 180 6.0 6.0 0.00 0.30 0.04 26 1014.1
20221002173151 53 180 4.0 7.0 0.00 0.30 0.04 29 1014.2
20221002172251 52 180 2.0 4.0 0.00 0.30 0.04 31 1014.1
20221002171351 52 180 0.0 3.0 0.00 0.30 0.04 34 1014.5
20221002170452 51 180 1.0 3.0 0.00 0.30 0.04 38 1014.2
20221002165551 51 180 0.0 4.0 0.00 0.30 0.04 40 1014.3
20221002164652 49 180 1.0 3.0 0.00 0.30 0.04 45 1014.3
20221002163752 49 180 1.0 3.0 0.00 0.30 0.04 46 1014.1
20221002162852 49 180 3.0 3.0 0.00 0.30 0.04 48 1014.2
20221002161952 47 180 1.0 5.0 0.00 0.30 0.04 56 1014.4
20221002161051 46 180 1.0 3.0 0.00 0.30 0.04 56 1014.4
20221002160151 47 180 1.0 3.0 0.00 0.30 0.04 49 1014.3
20221002155251 46 180 0.0 3.0 0.00 0.30 0.04 51 1014.5
20221002154351 45 180 3.0 4.0 0.00 0.30 0.04 52 1014.4
20221002153452 45 180 3.0 5.0 0.00 0.30 0.04 52 1014.6
20221002152802 44 216 3.0 3.0 0.00 0.30 0.04 52 1014.5
20221002151651 44 231 2.0 4.0 0.00 0.30 0.04 58 1014.3
20221002150751 43 225 3.0 6.0 0.00 0.30 0.04 59 1014.3
20221002145851 43 225 6.0 7.0 0.00 0.30 0.02 56 1014.6
20221002144951 43 225 4.0 7.0 0.00 0.30 0.01 50 1014.6
20221002144052 43 212 6.0 9.0 0.00 0.30 0.01 49 1014.5
20221002143401 44 184 7.0 9.0 0.00 0.30 0.00 43 1014.5
20221002142251 45 180 6.0 11.0 0.00 0.30 0.00 37 1014.4
20221002141352 46 180 11.0 11.0 0.00 0.30 0.00 34 1014.7
20221002140451 46 180 7.0 9.0 0.00 0.30 0.00 35 1014.4
20221002135551 46 180 9.0 9.0 0.00 0.30 0.00 34 1014.2
20221002134652 46 215 5.0 8.0 0.00 0.30 0.00 32 1014.1
20221002134005 46 225 2.0 7.0 0.00 0.30 0.00 32 1013.6
20221002132851 47 225 1.0 11.0 0.00 0.30 0.00 28 1013.6
20221002131952 47 225 6.0 11.0 0.00 0.30 0.00 28 1013.4
20221002131051 47 225 6.0 15.0 0.00 0.30 0.00 28 1013.4
20221002130151 47 225 11.0 12.0 0.00 0.30 0.00 28 1013.1
20221002125252 46 240 6.0 7.0 0.00 0.30 0.00 28 1013.1
20221002123451 45 226 5.0 8.0 0.00 0.30 0.00 30 1013.0
20221002122551 45 186 2.0 7.0 0.00 0.30 0.00 31 1012.9
20221002121651 44 180 5.0 5.0 0.00 0.30 0.00 35 1013.0
20221002120751 44 180 3.0 5.0 0.00 0.30 0.00 35 1012.9
20221002115852 44 180 2.0 4.0 0.00 0.30 0.00 36 1012.8
20221002115204 43 180 2.0 3.0 0.00 0.30 0.00 40 1012.8
20221002114051 42 180 0.0 3.0 0.00 0.30 0.00 45 1012.7
20221002113151 42 180 0.0 3.0 0.00 0.30 0.00 45 1012.8
20221002112251 42 180 2.0 4.0 0.00 0.30 0.00 45 1012.7
20221002111351 42 180 4.0 4.0 0.00 0.30 0.00 45 1012.9
20221002110451 42 180 2.0 5.0 0.00 0.30 0.00 45 1012.7
20221002105803 42 180 4.0 6.0 0.00 0.30 0.00 45 1013.0
20221002104651 41 180 5.0 5.0 0.00 0.30 0.00 50 1012.8
20221002103752 42 180 3.0 5.0 0.00 0.30 0.00 49 1012.7
20221002102851 42 180 2.0 5.0 0.00 0.30 0.00 49 1012.8
20221002101952 42 180 4.0 7.0 0.00 0.30 0.00 50 1012.9
20221002101052 42 180 3.0 5.0 0.00 0.30 0.00 49 1012.9
20221002095307 42 180 5.0 5.0 0.00 0.30 0.00 48 1013.0